This is the latest recevied weather packets stored in our database for station/object IZ8QAD-10. If no packets are shown the sender has not sent any weather packets the latest 10 day(s).
| Time | Temp. | Humidity | Pressure | Rain* | Wind** | Luminosity | Snow |
|---|---|---|---|---|---|---|---|
| 1787565250 | 35.56° C | 30% | 969.9 hPa | - | - | - | - |
| 1787563450 | 35.56° C | 30% | 970.2 hPa | - | - | - | - |
| 1787561650 | 35.56° C | 30% | 970.2 hPa | - | - | - | - |
| 1787559850 | 35.56° C | 30% | 970.3 hPa | - | - | - | - |
| 1787558050 | 35.56° C | 29% | 970.3 hPa | - | - | - | - |
| 1787556250 | 35.56° C | 29% | 970.5 hPa | - | - | - | - |
| 1787554449 | 36.11° C | 29% | 970.4 hPa | - | - | - | - |
| 1787552649 | 36.11° C | 29% | 970.6 hPa | - | - | - | - |
| 1787550849 | 36.11° C | 29% | 970.4 hPa | - | - | - | - |
| 1787549049 | 36.11° C | 28% | 970.2 hPa | - | - | - | - |
| 1787547248 | 36.11° C | 28% | 970 hPa | - | - | - | - |
| 1787545448 | 36.67° C | 27% | 969.9 hPa | - | - | - | - |
| 1787543647 | 38.89° C | 24% | 969.8 hPa | - | - | - | - |
| 1787393342 | 36.67° C | 32% | 968.1 hPa | - | - | - | - |
| 1787391542 | 36.67° C | 32% | 968.1 hPa | - | - | - | - |
| 1787389742 | 36.67° C | 33% | 968.4 hPa | - | - | - | - |
| 1787387942 | 36.11° C | 33% | 968.5 hPa | - | - | - | - |
| 1787386142 | 36.67° C | 33% | 968.4 hPa | - | - | - | - |
| 1787384342 | 36.67° C | 33% | 968.4 hPa | - | - | - | - |
| 1787382542 | 36.67° C | 32% | 968.5 hPa | - | - | - | - |
| 1787380741 | 36.67° C | 32% | 968 hPa | - | - | - | - |
| 1787378941 | 36.67° C | 32% | 968 hPa | - | - | - | - |
| 1787377141 | 36.67° C | 32% | 968 hPa | - | - | - | - |
| 1787375341 | 37.22° C | 32% | 968 hPa | - | - | - | - |
| 1787373541 | 37.22° C | 31% | 967.9 hPa | - | - | - | - |
* Rain since midnight (hover to see other rain measurements)
** Current wind speed in m/s (hover to see current wind gust speed)